sensor_id;sensor_type;location;lat;lon;timestamp;temperature;humidity
1988;DHT22;12775;46.994;15.498;2022-11-15T00:01:59;12.20;99.90
1988;DHT22;12775;46.994;15.498;2022-11-15T00:04:26;12.10;99.90
1988;DHT22;12775;46.994;15.498;2022-11-15T00:06:53;12.20;99.90
1988;DHT22;12775;46.994;15.498;2022-11-15T00:09:19;12.10;99.90
1988;DHT22;12775;46.994;15.498;2022-11-15T00:11:46;12.10;99.90
1988;DHT22;12775;46.994;15.498;2022-11-15T00:14:13;12.10;99.90
1988;DHT22;12775;46.994;15.498;2022-11-15T00:16:39;12.00;99.90
1988;DHT22;12775;46.994;15.498;2022-11-15T00:19:06;11.90;99.90
1988;DHT22;12775;46.994;15.498;2022-11-15T00:21:33;11.90;99.90
1988;DHT22;12775;46.994;15.498;2022-11-15T00:23:59;11.90;99.90
1988;DHT22;12775;46.994;15.498;2022-11-15T00:26:26;11.90;99.90
1988;DHT22;12775;46.994;15.498;2022-11-15T00:28:52;11.80;99.90
1988;DHT22;12775;46.994;15.498;2022-11-15T00:31:19;11.60;99.90
1988;DHT22;12775;46.994;15.498;2022-11-15T00:33:46;11.70;99.90
1988;DHT22;12775;46.994;15.498;2022-11-15T00:36:12;11.80;99.90
1988;DHT22;12775;46.994;15.498;2022-11-15T00:38:39;11.80;99.90
1988;DHT22;12775;46.994;15.498;2022-11-15T00:41:06;11.70;99.90
1988;DHT22;12775;46.994;15.498;2022-11-15T00:43:32;11.70;99.90
1988;DHT22;12775;46.994;15.498;2022-11-15T00:46:00;11.80;99.90
1988;DHT22;12775;46.994;15.498;2022-11-15T00:48:26;11.80;99.90
1988;DHT22;12775;46.994;15.498;2022-11-15T00:50:53;11.80;99.90
1988;DHT22;12775;46.994;15.498;2022-11-15T00:53:19;11.80;99.90
1988;DHT22;12775;46.994;15.498;2022-11-15T00:55:46;11.80;99.90
1988;DHT22;12775;46.994;15.498;2022-11-15T00:58:13;11.90;99.90
1988;DHT22;12775;46.994;15.498;2022-11-15T01:00:39;11.90;99.90
1988;DHT22;12775;46.994;15.498;2022-11-15T01:03:06;11.90;99.90
1988;DHT22;12775;46.994;15.498;2022-11-15T01:05:33;11.90;99.90
1988;DHT22;12775;46.994;15.498;2022-11-15T01:08:00;11.90;99.90
1988;DHT22;12775;46.994;15.498;2022-11-15T01:10:26;11.90;99.90
1988;DHT22;12775;46.994;15.498;2022-11-15T01:12:53;11.90;99.90
1988;DHT22;12775;46.994;15.498;2022-11-15T01:15:20;11.90;99.90
1988;DHT22;12775;46.994;15.498;2022-11-15T01:17:46;11.90;99.90
1988;DHT22;12775;46.994;15.498;2022-11-15T01:20:13;11.90;99.90
1988;DHT22;12775;46.994;15.498;2022-11-15T01:22:40;11.90;99.90
1988;DHT22;12775;46.994;15.498;2022-11-15T01:25:06;11.90;99.90
1988;DHT22;12775;46.994;15.498;2022-11-15T01:27:34;11.90;99.90
1988;DHT22;12775;46.994;15.498;2022-11-15T01:30:01;11.90;99.90
1988;DHT22;12775;46.994;15.498;2022-11-15T01:32:27;11.90;99.90
1988;DHT22;12775;46.994;15.498;2022-11-15T01:34:54;11.80;99.90
1988;DHT22;12775;46.994;15.498;2022-11-15T01:37:21;11.80;99.90
1988;DHT22;12775;46.994;15.498;2022-11-15T01:39:47;11.70;99.90
1988;DHT22;12775;46.994;15.498;2022-11-15T01:42:14;11.70;99.90
1988;DHT22;12775;46.994;15.498;2022-11-15T01:44:42;11.70;99.90
1988;DHT22;12775;46.994;15.498;2022-11-15T01:47:24;11.70;99.90
1988;DHT22;12775;46.994;15.498;2022-11-15T01:50:06;11.70;99.90
1988;DHT22;12775;46.994;15.498;2022-11-15T01:52:31;11.60;99.90
1988;DHT22;12775;46.994;15.498;2022-11-15T01:55:14;11.50;99.90
1988;DHT22;12775;46.994;15.498;2022-11-15T01:57:41;11.50;99.90
1988;DHT22;12775;46.994;15.498;2022-11-15T02:00:08;11.50;99.90
1988;DHT22;12775;46.994;15.498;2022-11-15T02:02:35;11.50;99.90
1988;DHT22;12775;46.994;15.498;2022-11-15T02:05:01;11.50;99.90
1988;DHT22;12775;46.994;15.498;2022-11-15T02:07:28;11.60;99.90
1988;DHT22;12775;46.994;15.498;2022-11-15T02:09:58;11.60;99.90
1988;DHT22;12775;46.994;15.498;2022-11-15T02:12:22;11.60;99.90
1988;DHT22;12775;46.994;15.498;2022-11-15T02:14:51;11.60;99.90
1988;DHT22;12775;46.994;15.498;2022-11-15T02:17:32;11.60;99.90
1988;DHT22;12775;46.994;15.498;2022-11-15T02:23:03;11.70;99.90
1988;DHT22;12775;46.994;15.498;2022-11-15T02:25:57;11.80;99.90
1988;DHT22;12775;46.994;15.498;2022-11-15T02:29:14;11.80;99.90
1988;DHT22;12775;46.994;15.498;2022-11-15T02:31:45;11.80;99.90
1988;DHT22;12775;46.994;15.498;2022-11-15T02:34:12;11.90;99.90
1988;DHT22;12775;46.994;15.498;2022-11-15T02:36:41;11.90;99.90
1988;DHT22;12775;46.994;15.498;2022-11-15T02:39:10;11.90;99.90
1988;DHT22;12775;46.994;15.498;2022-11-15T02:41:54;11.90;99.90
1988;DHT22;12775;46.994;15.498;2022-11-15T02:44:24;11.90;99.90
1988;DHT22;12775;46.994;15.498;2022-11-15T02:46:51;11.90;99.90
1988;DHT22;12775;46.994;15.498;2022-11-15T02:49:24;11.90;99.90
1988;DHT22;12775;46.994;15.498;2022-11-15T02:51:49;11.90;99.90
1988;DHT22;12775;46.994;15.498;2022-11-15T02:54:20;11.90;99.90
1988;DHT22;12775;46.994;15.498;2022-11-15T02:56:44;11.90;99.90
1988;DHT22;12775;46.994;15.498;2022-11-15T02:59:18;11.90;99.90
1988;DHT22;12775;46.994;15.498;2022-11-15T03:04:26;12.00;99.90
1988;DHT22;12775;46.994;15.498;2022-11-15T03:06:57;12.00;99.90
1988;DHT22;12775;46.994;15.498;2022-11-15T03:11:59;12.00;99.90
1988;DHT22;12775;46.994;15.498;2022-11-15T03:14:34;12.00;99.90
1988;DHT22;12775;46.994;15.498;2022-11-15T03:17:11;12.00;99.90
1988;DHT22;12775;46.994;15.498;2022-11-15T03:19:46;11.90;99.90
1988;DHT22;12775;46.994;15.498;2022-11-15T03:22:13;11.90;99.90
1988;DHT22;12775;46.994;15.498;2022-11-15T03:24:38;11.90;99.90
1988;DHT22;12775;46.994;15.498;2022-11-15T03:27:05;12.00;99.90
1988;DHT22;12775;46.994;15.498;2022-11-15T03:29:33;12.00;99.90
1988;DHT22;12775;46.994;15.498;2022-11-15T03:32:02;12.00;99.90
1988;DHT22;12775;46.994;15.498;2022-11-15T03:35:01;12.00;99.90
1988;DHT22;12775;46.994;15.498;2022-11-15T03:37:09;12.00;99.90
1988;DHT22;12775;46.994;15.498;2022-11-15T03:39:36;12.00;99.90
1988;DHT22;12775;46.994;15.498;2022-11-15T03:42:11;11.90;99.90
1988;DHT22;12775;46.994;15.498;2022-11-15T03:44:50;11.80;99.90
1988;DHT22;12775;46.994;15.498;2022-11-15T03:47:17;11.80;99.90
1988;DHT22;12775;46.994;15.498;2022-11-15T03:49:44;11.80;99.90
1988;DHT22;12775;46.994;15.498;2022-11-15T03:52:09;11.70;99.90
1988;DHT22;12775;46.994;15.498;2022-11-15T03:54:35;11.70;99.90
1988;DHT22;12775;46.994;15.498;2022-11-15T03:57:02;11.60;99.90
1988;DHT22;12775;46.994;15.498;2022-11-15T03:59:29;11.60;99.90
1988;DHT22;12775;46.994;15.498;2022-11-15T04:01:55;11.50;99.90
1988;DHT22;12775;46.994;15.498;2022-11-15T04:04:22;11.50;99.90
1988;DHT22;12775;46.994;15.498;2022-11-15T04:06:48;11.60;99.90
1988;DHT22;12775;46.994;15.498;2022-11-15T04:09:15;11.60;99.90
1988;DHT22;12775;46.994;15.498;2022-11-15T04:11:42;11.50;99.90
1988;DHT22;12775;46.994;15.498;2022-11-15T04:14:08;11.60;99.90
1988;DHT22;12775;46.994;15.498;2022-11-15T04:16:35;11.60;99.90
1988;DHT22;12775;46.994;15.498;2022-11-15T04:19:01;11.60;99.90
1988;DHT22;12775;46.994;15.498;2022-11-15T04:21:34;11.60;99.90
1988;DHT22;12775;46.994;15.498;2022-11-15T04:24:06;11.60;99.90
1988;DHT22;12775;46.994;15.498;2022-11-15T04:26:40;11.60;99.90
1988;DHT22;12775;46.994;15.498;2022-11-15T04:29:07;11.60;99.90
1988;DHT22;12775;46.994;15.498;2022-11-15T04:31:39;11.50;99.90
1988;DHT22;12775;46.994;15.498;2022-11-15T04:34:06;11.50;99.90
1988;DHT22;12775;46.994;15.498;2022-11-15T04:36:32;11.50;99.90
1988;DHT22;12775;46.994;15.498;2022-11-15T04:39:04;11.50;99.90
1988;DHT22;12775;46.994;15.498;2022-11-15T04:41:31;11.50;99.90
1988;DHT22;12775;46.994;15.498;2022-11-15T04:43:58;11.50;99.90
1988;DHT22;12775;46.994;15.498;2022-11-15T04:46:24;11.60;99.90
1988;DHT22;12775;46.994;15.498;2022-11-15T04:48:51;11.60;99.90
1988;DHT22;12775;46.994;15.498;2022-11-15T04:51:18;11.50;99.90
1988;DHT22;12775;46.994;15.498;2022-11-15T04:53:44;11.60;99.90
1988;DHT22;12775;46.994;15.498;2022-11-15T04:56:11;11.60;99.90
1988;DHT22;12775;46.994;15.498;2022-11-15T04:58:37;11.60;99.90
1988;DHT22;12775;46.994;15.498;2022-11-15T05:01:08;11.60;99.90
1988;DHT22;12775;46.994;15.498;2022-11-15T05:03:34;11.60;99.90
1988;DHT22;12775;46.994;15.498;2022-11-15T05:06:06;11.70;99.90
1988;DHT22;12775;46.994;15.498;2022-11-15T05:08:33;11.70;99.90
1988;DHT22;12775;46.994;15.498;2022-11-15T05:11:00;11.70;99.90
1988;DHT22;12775;46.994;15.498;2022-11-15T05:13:27;11.70;99.90
1988;DHT22;12775;46.994;15.498;2022-11-15T05:15:54;11.80;99.90
1988;DHT22;12775;46.994;15.498;2022-11-15T05:18:20;11.70;99.90
1988;DHT22;12775;46.994;15.498;2022-11-15T05:20:47;11.70;99.90
1988;DHT22;12775;46.994;15.498;2022-11-15T05:23:13;11.70;99.90
1988;DHT22;12775;46.994;15.498;2022-11-15T05:25:40;11.60;99.90
1988;DHT22;12775;46.994;15.498;2022-11-15T05:28:07;11.50;99.90
1988;DHT22;12775;46.994;15.498;2022-11-15T05:30:34;11.40;99.90
1988;DHT22;12775;46.994;15.498;2022-11-15T05:33:01;11.40;99.90
1988;DHT22;12775;46.994;15.498;2022-11-15T05:35:38;11.40;99.90
1988;DHT22;12775;46.994;15.498;2022-11-15T05:38:07;11.10;99.90
1988;DHT22;12775;46.994;15.498;2022-11-15T05:40:33;11.10;99.90
1988;DHT22;12775;46.994;15.498;2022-11-15T05:42:59;11.10;99.90
1988;DHT22;12775;46.994;15.498;2022-11-15T05:45:26;11.10;99.90
1988;DHT22;12775;46.994;15.498;2022-11-15T05:47:54;10.90;99.90
1988;DHT22;12775;46.994;15.498;2022-11-15T05:50:20;10.90;99.90
1988;DHT22;12775;46.994;15.498;2022-11-15T05:52:47;10.80;99.90
1988;DHT22;12775;46.994;15.498;2022-11-15T05:55:13;10.90;99.90
1988;DHT22;12775;46.994;15.498;2022-11-15T05:57:40;10.90;99.90
1988;DHT22;12775;46.994;15.498;2022-11-15T06:00:07;10.90;99.90
1988;DHT22;12775;46.994;15.498;2022-11-15T06:02:34;10.80;99.90
1988;DHT22;12775;46.994;15.498;2022-11-15T06:05:00;10.70;99.90
1988;DHT22;12775;46.994;15.498;2022-11-15T06:07:28;10.70;99.90
1988;DHT22;12775;46.994;15.498;2022-11-15T06:09:54;10.70;99.90
1988;DHT22;12775;46.994;15.498;2022-11-15T06:12:20;10.70;99.90
1988;DHT22;12775;46.994;15.498;2022-11-15T06:14:47;10.70;99.90
1988;DHT22;12775;46.994;15.498;2022-11-15T06:17:14;10.70;99.90
1988;DHT22;12775;46.994;15.498;2022-11-15T06:19:40;10.70;99.90
1988;DHT22;12775;46.994;15.498;2022-11-15T06:22:08;10.70;99.90
1988;DHT22;12775;46.994;15.498;2022-11-15T06:24:34;10.70;99.90
1988;DHT22;12775;46.994;15.498;2022-11-15T06:27:01;10.60;99.90
1988;DHT22;12775;46.994;15.498;2022-11-15T06:29:28;10.70;99.90
1988;DHT22;12775;46.994;15.498;2022-11-15T06:31:54;10.70;99.90
1988;DHT22;12775;46.994;15.498;2022-11-15T06:34:21;10.70;99.90
1988;DHT22;12775;46.994;15.498;2022-11-15T06:36:47;10.80;99.90
1988;DHT22;12775;46.994;15.498;2022-11-15T06:39:14;10.80;99.90
1988;DHT22;12775;46.994;15.498;2022-11-15T06:41:42;10.80;99.90
1988;DHT22;12775;46.994;15.498;2022-11-15T06:44:09;10.80;99.90
1988;DHT22;12775;46.994;15.498;2022-11-15T06:46:36;10.80;99.90
1988;DHT22;12775;46.994;15.498;2022-11-15T06:49:02;10.80;99.90
1988;DHT22;12775;46.994;15.498;2022-11-15T06:51:29;10.80;99.90
1988;DHT22;12775;46.994;15.498;2022-11-15T06:53:55;10.80;99.90
1988;DHT22;12775;46.994;15.498;2022-11-15T06:56:22;10.80;99.90
1988;DHT22;12775;46.994;15.498;2022-11-15T06:58:49;10.90;99.90
1988;DHT22;12775;46.994;15.498;2022-11-15T07:01:15;10.90;99.90
1988;DHT22;12775;46.994;15.498;2022-11-15T07:03:43;10.90;99.90
1988;DHT22;12775;46.994;15.498;2022-11-15T07:06:09;10.90;99.90
1988;DHT22;12775;46.994;15.498;2022-11-15T07:08:36;11.00;99.90
1988;DHT22;12775;46.994;15.498;2022-11-15T07:11:03;11.00;99.90
1988;DHT22;12775;46.994;15.498;2022-11-15T07:13:29;11.00;99.90
1988;DHT22;12775;46.994;15.498;2022-11-15T07:15:56;11.00;99.90
1988;DHT22;12775;46.994;15.498;2022-11-15T07:18:22;11.00;99.90
1988;DHT22;12775;46.994;15.498;2022-11-15T07:20:49;11.00;99.90
1988;DHT22;12775;46.994;15.498;2022-11-15T07:23:15;11.10;99.90
1988;DHT22;12775;46.994;15.498;2022-11-15T07:25:42;11.00;99.90
1988;DHT22;12775;46.994;15.498;2022-11-15T07:28:09;11.00;99.90
1988;DHT22;12775;46.994;15.498;2022-11-15T07:30:35;11.10;99.90
1988;DHT22;12775;46.994;15.498;2022-11-15T07:33:02;11.10;99.90
1988;DHT22;12775;46.994;15.498;2022-11-15T07:35:29;11.00;99.90
1988;DHT22;12775;46.994;15.498;2022-11-15T07:37:57;11.10;99.90
1988;DHT22;12775;46.994;15.498;2022-11-15T07:40:23;11.10;99.90
1988;DHT22;12775;46.994;15.498;2022-11-15T07:42:49;11.20;99.90
1988;DHT22;12775;46.994;15.498;2022-11-15T07:45:20;11.20;99.90
1988;DHT22;12775;46.994;15.498;2022-11-15T07:47:47;11.20;99.90
1988;DHT22;12775;46.994;15.498;2022-11-15T07:50:13;11.20;99.90
1988;DHT22;12775;46.994;15.498;2022-11-15T07:52:39;11.30;99.90
1988;DHT22;12775;46.994;15.498;2022-11-15T07:55:07;11.30;99.90
1988;DHT22;12775;46.994;15.498;2022-11-15T07:57:33;11.40;99.90
1988;DHT22;12775;46.994;15.498;2022-11-15T08:00:00;11.30;99.90
1988;DHT22;12775;46.994;15.498;2022-11-15T08:02:27;11.40;99.90
1988;DHT22;12775;46.994;15.498;2022-11-15T08:04:53;11.40;99.90
1988;DHT22;12775;46.994;15.498;2022-11-15T08:07:20;11.30;99.90
1988;DHT22;12775;46.994;15.498;2022-11-15T08:09:46;11.40;99.90
1988;DHT22;12775;46.994;15.498;2022-11-15T08:12:13;11.40;99.90
1988;DHT22;12775;46.994;15.498;2022-11-15T08:14:40;11.40;99.90
1988;DHT22;12775;46.994;15.498;2022-11-15T08:17:06;11.40;99.90
1988;DHT22;12775;46.994;15.498;2022-11-15T08:19:33;11.40;99.90
1988;DHT22;12775;46.994;15.498;2022-11-15T08:21:59;11.50;99.90
1988;DHT22;12775;46.994;15.498;2022-11-15T08:24:26;11.40;99.90
1988;DHT22;12775;46.994;15.498;2022-11-15T08:26:53;11.40;99.90
1988;DHT22;12775;46.994;15.498;2022-11-15T08:29:19;11.40;99.90
1988;DHT22;12775;46.994;15.498;2022-11-15T08:31:46;11.40;99.90
1988;DHT22;12775;46.994;15.498;2022-11-15T08:34:12;11.40;99.90
1988;DHT22;12775;46.994;15.498;2022-11-15T08:36:40;11.50;99.90
1988;DHT22;12775;46.994;15.498;2022-11-15T08:39:09;11.50;99.90
1988;DHT22;12775;46.994;15.498;2022-11-15T08:41:35;11.50;99.90
1988;DHT22;12775;46.994;15.498;2022-11-15T08:44:00;11.50;99.90
1988;DHT22;12775;46.994;15.498;2022-11-15T08:46:26;11.60;99.90
1988;DHT22;12775;46.994;15.498;2022-11-15T08:48:54;11.60;99.90
1988;DHT22;12775;46.994;15.498;2022-11-15T08:51:20;11.50;99.90
1988;DHT22;12775;46.994;15.498;2022-11-15T08:53:47;11.60;99.90
1988;DHT22;12775;46.994;15.498;2022-11-15T08:56:14;11.60;99.90
1988;DHT22;12775;46.994;15.498;2022-11-15T08:58:40;11.60;99.90
1988;DHT22;12775;46.994;15.498;2022-11-15T09:01:13;11.70;99.90
1988;DHT22;12775;46.994;15.498;2022-11-15T09:03:33;11.70;99.90
1988;DHT22;12775;46.994;15.498;2022-11-15T09:06:00;11.70;99.90
1988;DHT22;12775;46.994;15.498;2022-11-15T09:08:29;11.70;99.90
1988;DHT22;12775;46.994;15.498;2022-11-15T09:10:53;11.80;99.90
1988;DHT22;12775;46.994;15.498;2022-11-15T09:13:20;11.80;99.90
1988;DHT22;12775;46.994;15.498;2022-11-15T09:15:46;11.70;99.90
1988;DHT22;12775;46.994;15.498;2022-11-15T09:18:13;11.50;99.90
1988;DHT22;12775;46.994;15.498;2022-11-15T09:20:39;11.50;99.90
1988;DHT22;12775;46.994;15.498;2022-11-15T09:23:06;11.60;99.90
1988;DHT22;12775;46.994;15.498;2022-11-15T09:25:33;11.60;99.90
1988;DHT22;12775;46.994;15.498;2022-11-15T09:27:59;11.60;99.90
1988;DHT22;12775;46.994;15.498;2022-11-15T09:30:26;11.70;99.90
1988;DHT22;12775;46.994;15.498;2022-11-15T09:32:52;11.80;99.90
1988;DHT22;12775;46.994;15.498;2022-11-15T09:35:19;11.80;99.90
1988;DHT22;12775;46.994;15.498;2022-11-15T09:37:46;11.80;99.90
1988;DHT22;12775;46.994;15.498;2022-11-15T09:40:13;11.80;99.90
1988;DHT22;12775;46.994;15.498;2022-11-15T09:43:04;11.90;99.90
1988;DHT22;12775;46.994;15.498;2022-11-15T09:45:31;11.80;99.90
1988;DHT22;12775;46.994;15.498;2022-11-15T09:48:05;11.90;99.90
1988;DHT22;12775;46.994;15.498;2022-11-15T09:50:36;11.90;99.90
1988;DHT22;12775;46.994;15.498;2022-11-15T09:53:01;11.90;99.90
1988;DHT22;12775;46.994;15.498;2022-11-15T09:55:34;11.90;99.90
1988;DHT22;12775;46.994;15.498;2022-11-15T09:58:03;12.00;99.90
1988;DHT22;12775;46.994;15.498;2022-11-15T10:00:32;11.90;99.90
1988;DHT22;12775;46.994;15.498;2022-11-15T10:03:09;11.90;99.90
1988;DHT22;12775;46.994;15.498;2022-11-15T10:05:43;11.80;99.90
1988;DHT22;12775;46.994;15.498;2022-11-15T10:08:25;11.80;99.90
1988;DHT22;12775;46.994;15.498;2022-11-15T10:10:52;11.90;99.90
1988;DHT22;12775;46.994;15.498;2022-11-15T10:13:21;11.60;99.90
1988;DHT22;12775;46.994;15.498;2022-11-15T10:15:46;11.70;99.90
1988;DHT22;12775;46.994;15.498;2022-11-15T10:18:16;11.70;99.90
1988;DHT22;12775;46.994;15.498;2022-11-15T10:20:57;11.90;99.90
1988;DHT22;12775;46.994;15.498;2022-11-15T10:23:22;11.90;99.90
1988;DHT22;12775;46.994;15.498;2022-11-15T10:25:51;12.10;99.90
1988;DHT22;12775;46.994;15.498;2022-11-15T10:28:32;12.00;99.90
1988;DHT22;12775;46.994;15.498;2022-11-15T10:30:59;12.10;99.90
1988;DHT22;12775;46.994;15.498;2022-11-15T10:33:34;12.20;99.90
1988;DHT22;12775;46.994;15.498;2022-11-15T10:36:16;12.20;99.90
1988;DHT22;12775;46.994;15.498;2022-11-15T10:38:54;12.30;99.90
1988;DHT22;12775;46.994;15.498;2022-11-15T10:41:21;12.30;99.90
1988;DHT22;12775;46.994;15.498;2022-11-15T10:44:07;12.40;99.90
1988;DHT22;12775;46.994;15.498;2022-11-15T10:46:29;12.40;99.90
1988;DHT22;12775;46.994;15.498;2022-11-15T10:49:33;12.50;99.90
1988;DHT22;12775;46.994;15.498;2022-11-15T10:51:48;12.50;99.90
1988;DHT22;12775;46.994;15.498;2022-11-15T10:54:16;12.50;99.90
1988;DHT22;12775;46.994;15.498;2022-11-15T10:56:40;12.60;99.90
1988;DHT22;12775;46.994;15.498;2022-11-15T10:59:13;12.70;99.90
1988;DHT22;12775;46.994;15.498;2022-11-15T11:01:33;12.80;99.90
1988;DHT22;12775;46.994;15.498;2022-11-15T11:04:02;12.80;99.90
1988;DHT22;12775;46.994;15.498;2022-11-15T11:06:28;12.90;99.90
1988;DHT22;12775;46.994;15.498;2022-11-15T11:09:00;12.80;99.90
1988;DHT22;12775;46.994;15.498;2022-11-15T11:11:45;12.90;99.90
1988;DHT22;12775;46.994;15.498;2022-11-15T11:14:13;12.80;99.90
1988;DHT22;12775;46.994;15.498;2022-11-15T11:16:43;12.80;99.90
1988;DHT22;12775;46.994;15.498;2022-11-15T11:19:31;12.90;99.90
1988;DHT22;12775;46.994;15.498;2022-11-15T11:22:04;12.90;99.90
1988;DHT22;12775;46.994;15.498;2022-11-15T11:24:42;12.90;99.90
1988;DHT22;12775;46.994;15.498;2022-11-15T11:30:02;12.80;99.90
1988;DHT22;12775;46.994;15.498;2022-11-15T11:32:36;12.90;99.90
1988;DHT22;12775;46.994;15.498;2022-11-15T11:37:46;13.00;99.90
1988;DHT22;12775;46.994;15.498;2022-11-15T11:40:29;13.00;99.90
1988;DHT22;12775;46.994;15.498;2022-11-15T11:43:15;13.00;99.90
1988;DHT22;12775;46.994;15.498;2022-11-15T11:45:51;12.80;99.90
1988;DHT22;12775;46.994;15.498;2022-11-15T11:48:20;12.70;99.90
1988;DHT22;12775;46.994;15.498;2022-11-15T11:50:41;12.70;99.90
1988;DHT22;12775;46.994;15.498;2022-11-15T11:53:31;12.80;99.90
1988;DHT22;12775;46.994;15.498;2022-11-15T11:55:58;12.80;99.90
1988;DHT22;12775;46.994;15.498;2022-11-15T11:58:41;12.90;99.90
1988;DHT22;12775;46.994;15.498;2022-11-15T12:04:34;12.70;99.90
1988;DHT22;12775;46.994;15.498;2022-11-15T12:07:17;12.50;99.90
1988;DHT22;12775;46.994;15.498;2022-11-15T12:09:49;12.70;99.90
1988;DHT22;12775;46.994;15.498;2022-11-15T12:12:13;12.70;99.90
1988;DHT22;12775;46.994;15.498;2022-11-15T12:14:43;12.80;99.90
1988;DHT22;12775;46.994;15.498;2022-11-15T12:17:10;12.70;99.90
1988;DHT22;12775;46.994;15.498;2022-11-15T12:19:37;12.70;99.90
1988;DHT22;12775;46.994;15.498;2022-11-15T12:22:19;12.70;99.90
1988;DHT22;12775;46.994;15.498;2022-11-15T12:24:48;12.60;99.90
1988;DHT22;12775;46.994;15.498;2022-11-15T12:27:19;12.60;99.90
1988;DHT22;12775;46.994;15.498;2022-11-15T12:29:48;12.50;99.90
1988;DHT22;12775;46.994;15.498;2022-11-15T12:32:25;12.50;99.90
1988;DHT22;12775;46.994;15.498;2022-11-15T12:34:50;12.30;99.90
1988;DHT22;12775;46.994;15.498;2022-11-15T12:40:05;12.10;99.90
1988;DHT22;12775;46.994;15.498;2022-11-15T12:45:25;11.90;99.90
1988;DHT22;12775;46.994;15.498;2022-11-15T12:47:50;11.60;99.90
1988;DHT22;12775;46.994;15.498;2022-11-15T12:50:18;11.60;99.90
1988;DHT22;12775;46.994;15.498;2022-11-15T12:55:31;11.60;99.90
1988;DHT22;12775;46.994;15.498;2022-11-15T12:58:10;11.60;99.90
1988;DHT22;12775;46.994;15.498;2022-11-15T13:00:40;11.60;99.90
1988;DHT22;12775;46.994;15.498;2022-11-15T13:03:21;11.60;99.90
1988;DHT22;12775;46.994;15.498;2022-11-15T13:06:04;11.50;99.90
1988;DHT22;12775;46.994;15.498;2022-11-15T13:08:41;11.60;99.90
1988;DHT22;12775;46.994;15.498;2022-11-15T13:11:50;11.50;99.90
1988;DHT22;12775;46.994;15.498;2022-11-15T13:14:00;11.50;99.90
1988;DHT22;12775;46.994;15.498;2022-11-15T13:16:27;11.60;99.90
1988;DHT22;12775;46.994;15.498;2022-11-15T13:18:54;11.60;99.90
1988;DHT22;12775;46.994;15.498;2022-11-15T13:21:22;11.60;99.90
1988;DHT22;12775;46.994;15.498;2022-11-15T13:23:54;11.60;99.90
1988;DHT22;12775;46.994;15.498;2022-11-15T13:26:20;11.50;99.90
1988;DHT22;12775;46.994;15.498;2022-11-15T13:28:48;11.60;99.90
1988;DHT22;12775;46.994;15.498;2022-11-15T13:31:29;11.60;99.90
1988;DHT22;12775;46.994;15.498;2022-11-15T13:34:03;11.40;99.90
1988;DHT22;12775;46.994;15.498;2022-11-15T13:36:37;11.50;99.90
1988;DHT22;12775;46.994;15.498;2022-11-15T13:39:04;11.40;99.90
1988;DHT22;12775;46.994;15.498;2022-11-15T13:41:31;11.50;99.90
1988;DHT22;12775;46.994;15.498;2022-11-15T13:43:57;11.40;99.90
1988;DHT22;12775;46.994;15.498;2022-11-15T13:46:25;11.40;99.90
1988;DHT22;12775;46.994;15.498;2022-11-15T13:48:58;11.60;99.90
1988;DHT22;12775;46.994;15.498;2022-11-15T13:51:33;11.60;99.90
1988;DHT22;12775;46.994;15.498;2022-11-15T13:53:59;11.70;99.90
1988;DHT22;12775;46.994;15.498;2022-11-15T13:56:24;11.70;99.90
1988;DHT22;12775;46.994;15.498;2022-11-15T13:58:51;11.80;99.90
1988;DHT22;12775;46.994;15.498;2022-11-15T14:01:18;11.80;99.90
1988;DHT22;12775;46.994;15.498;2022-11-15T14:03:49;11.90;99.90
1988;DHT22;12775;46.994;15.498;2022-11-15T14:06:15;12.00;99.90
1988;DHT22;12775;46.994;15.498;2022-11-15T14:08:42;12.10;99.90
1988;DHT22;12775;46.994;15.498;2022-11-15T14:11:16;12.10;99.90
1988;DHT22;12775;46.994;15.498;2022-11-15T14:13:41;12.10;99.90
1988;DHT22;12775;46.994;15.498;2022-11-15T14:16:18;12.10;99.90
1988;DHT22;12775;46.994;15.498;2022-11-15T14:18:47;12.10;99.90
1988;DHT22;12775;46.994;15.498;2022-11-15T14:21:11;12.20;99.90
1988;DHT22;12775;46.994;15.498;2022-11-15T14:23:39;12.20;99.90
1988;DHT22;12775;46.994;15.498;2022-11-15T14:26:05;12.20;99.90
1988;DHT22;12775;46.994;15.498;2022-11-15T14:28:33;12.10;99.90
1988;DHT22;12775;46.994;15.498;2022-11-15T14:30:59;12.10;99.90
1988;DHT22;12775;46.994;15.498;2022-11-15T14:33:30;12.10;99.90
1988;DHT22;12775;46.994;15.498;2022-11-15T14:35:57;12.10;99.90
1988;DHT22;12775;46.994;15.498;2022-11-15T14:38:24;12.00;99.90
1988;DHT22;12775;46.994;15.498;2022-11-15T14:40:50;12.00;99.90
1988;DHT22;12775;46.994;15.498;2022-11-15T14:43:16;11.90;99.90
1988;DHT22;12775;46.994;15.498;2022-11-15T14:45:44;11.90;99.90
1988;DHT22;12775;46.994;15.498;2022-11-15T14:48:11;11.90;99.90
1988;DHT22;12775;46.994;15.498;2022-11-15T14:50:37;11.90;99.90
1988;DHT22;12775;46.994;15.498;2022-11-15T14:53:04;11.90;99.90
1988;DHT22;12775;46.994;15.498;2022-11-15T14:55:32;11.90;99.90
1988;DHT22;12775;46.994;15.498;2022-11-15T14:57:59;11.70;99.90
1988;DHT22;12775;46.994;15.498;2022-11-15T15:00:25;11.70;99.90
1988;DHT22;12775;46.994;15.498;2022-11-15T15:02:53;11.70;99.90
1988;DHT22;12775;46.994;15.498;2022-11-15T15:05:21;11.70;99.90
1988;DHT22;12775;46.994;15.498;2022-11-15T15:07:46;11.70;99.90
1988;DHT22;12775;46.994;15.498;2022-11-15T15:10:13;11.70;99.90
1988;DHT22;12775;46.994;15.498;2022-11-15T15:12:39;11.70;99.90
1988;DHT22;12775;46.994;15.498;2022-11-15T15:15:11;11.80;99.90
1988;DHT22;12775;46.994;15.498;2022-11-15T15:17:33;11.80;99.90
1988;DHT22;12775;46.994;15.498;2022-11-15T15:20:00;11.90;99.90
1988;DHT22;12775;46.994;15.498;2022-11-15T15:22:26;11.90;99.90
1988;DHT22;12775;46.994;15.498;2022-11-15T15:24:53;12.00;99.90
1988;DHT22;12775;46.994;15.498;2022-11-15T15:27:19;12.00;99.90
1988;DHT22;12775;46.994;15.498;2022-11-15T15:29:47;12.20;99.90
1988;DHT22;12775;46.994;15.498;2022-11-15T15:32:13;12.10;99.90
1988;DHT22;12775;46.994;15.498;2022-11-15T15:34:40;12.20;99.90
1988;DHT22;12775;46.994;15.498;2022-11-15T15:39:54;12.30;99.90
1988;DHT22;12775;46.994;15.498;2022-11-15T15:42:21;12.40;99.90
1988;DHT22;12775;46.994;15.498;2022-11-15T15:44:47;12.40;99.90
1988;DHT22;12775;46.994;15.498;2022-11-15T15:47:19;12.40;99.90
1988;DHT22;12775;46.994;15.498;2022-11-15T15:49:45;12.40;99.90
1988;DHT22;12775;46.994;15.498;2022-11-15T15:52:12;12.40;99.90
1988;DHT22;12775;46.994;15.498;2022-11-15T15:54:39;12.40;99.90
1988;DHT22;12775;46.994;15.498;2022-11-15T15:57:06;12.40;99.90
1988;DHT22;12775;46.994;15.498;2022-11-15T15:59:32;12.40;99.90
1988;DHT22;12775;46.994;15.498;2022-11-15T16:01:58;12.40;99.90
1988;DHT22;12775;46.994;15.498;2022-11-15T16:04:25;12.30;99.90
1988;DHT22;12775;46.994;15.498;2022-11-15T16:06:52;12.30;99.90
1988;DHT22;12775;46.994;15.498;2022-11-15T16:09:18;12.30;99.90